Time;durP1;ratioP1;P1;durP2;ratioP2;P2;SDS_P1;SDS_P2;PMS_P1;PMS_P2;Temp;Humidity;BMP_temperature;BMP_pressure;BME280_temperature;BME280_humidity;BME280_pressure;Samples;Min_cycle;Max_cycle;Signal;HPM_P1;HPM_P2
2023/10/21 00:00:16;;;;;;;3.50;2.67;;;;;;;9.88;100.00;94845.81;4997735;28;20406;-84
2023/10/21 00:02:42;;;;;;;5.35;2.60;;;;;;;9.91;100.00;94860.28;5003268;28;20422;-86
2023/10/21 00:05:09;;;;;;;2.90;2.55;;;;;;;9.91;100.00;94870.84;4999826;28;20764;-84
2023/10/21 00:07:37;;;;;;;4.03;2.90;;;;;;;9.90;100.00;94888.56;4998330;28;20410;-86
2023/10/21 00:10:06;;;;;;;4.05;3.00;;;;;;;9.88;100.00;94885.44;4998655;28;20399;-85
2023/10/21 00:12:32;;;;;;;3.50;2.60;;;;;;;9.89;100.00;94867.72;4982271;28;20457;-85
2023/10/21 00:14:59;;;;;;;4.70;2.70;;;;;;;9.91;100.00;94876.13;4999260;28;20399;-85
2023/10/21 00:17:26;;;;;;;2.90;2.60;;;;;;;9.91;100.00;94878.78;4999846;28;20422;-85
2023/10/21 00:19:52;;;;;;;7.80;3.10;;;;;;;9.96;100.00;94887.34;4998688;28;20402;-84
2023/10/21 00:22:18;;;;;;;4.18;2.40;;;;;;;10.02;100.00;94886.09;4998361;28;20402;-85
2023/10/21 00:24:46;;;;;;;6.80;3.00;;;;;;;10.12;100.00;94887.69;4997719;28;20402;-84
2023/10/21 00:27:12;;;;;;;3.75;2.80;;;;;;;10.26;100.00;94892.84;4997798;28;20481;-85
2023/10/21 00:29:38;;;;;;;4.35;2.92;;;;;;;10.33;100.00;94896.59;5000770;28;20466;-85
2023/10/21 00:32:04;;;;;;;4.75;3.03;;;;;;;10.42;100.00;94892.09;4980333;28;20417;-85
2023/10/21 00:34:31;;;;;;;5.60;2.90;;;;;;;10.48;100.00;94901.44;4996335;28;20401;-84
2023/10/21 00:36:57;;;;;;;5.90;2.80;;;;;;;10.53;100.00;94905.00;4979069;28;20430;-84
2023/10/21 00:39:24;;;;;;;3.60;2.60;;;;;;;10.53;100.00;94895.19;4996759;28;20442;-84
2023/10/21 00:41:51;;;;;;;4.45;2.60;;;;;;;10.55;100.00;94895.69;4995958;28;20411;-84
2023/10/21 00:44:18;;;;;;;5.00;2.53;;;;;;;10.55;100.00;94900.19;4996071;28;20535;-85
2023/10/21 00:46:45;;;;;;;3.67;2.50;;;;;;;10.51;100.00;94894.75;4998626;28;20505;-85
2023/10/21 00:49:12;;;;;;;4.00;2.67;;;;;;;10.57;100.00;94911.25;5000109;28;20763;-85
2023/10/21 00:51:40;;;;;;;3.35;2.17;;;;;;;10.57;100.00;94912.03;5000939;28;20478;-86
2023/10/21 00:54:07;;;;;;;3.00;2.00;;;;;;;10.57;100.00;94924.47;5007389;28;20426;-85
2023/10/21 00:56:33;;;;;;;2.83;2.08;;;;;;;10.51;100.00;94929.13;5002180;28;20424;-85
2023/10/21 00:59:01;;;;;;;2.97;2.30;;;;;;;10.48;100.00;94919.16;5000951;28;20406;-84
2023/10/21 01:01:27;;;;;;;3.60;2.42;;;;;;;10.50;100.00;94932.09;5001025;28;20816;-85
2023/10/21 01:03:53;;;;;;;4.05;2.30;;;;;;;10.52;100.00;94935.22;5006739;28;20418;-85
2023/10/21 01:06:20;;;;;;;3.10;2.00;;;;;;;10.52;100.00;94937.84;5002918;28;20411;-85
2023/10/21 01:08:46;;;;;;;4.15;2.25;;;;;;;10.50;100.00;94940.81;5002628;28;20612;-84
2023/10/21 01:11:12;;;;;;;3.05;2.10;;;;;;;10.49;100.00;94952.47;5000402;28;20559;-84
2023/10/21 01:13:39;;;;;;;2.53;2.10;;;;;;;10.51;100.00;94962.75;4999375;28;20886;-85
2023/10/21 01:16:07;;;;;;;3.55;1.90;;;;;;;10.53;100.00;94968.47;4999363;28;20429;-84
2023/10/21 01:18:34;;;;;;;2.50;1.98;;;;;;;10.64;100.00;94970.53;5000595;28;20405;-84
2023/10/21 01:21:01;;;;;;;2.55;1.88;;;;;;;10.69;100.00;94986.25;5001786;28;20402;-85
2023/10/21 01:23:29;;;;;;;3.80;1.98;;;;;;;10.72;100.00;94969.75;4982623;28;20498;-86
2023/10/21 01:25:55;;;;;;;3.15;1.70;;;;;;;10.80;100.00;94970.88;5000709;28;20421;-84
2023/10/21 01:28:21;;;;;;;1.60;1.50;;;;;;;10.81;100.00;94986.44;4999646;28;20402;-83
2023/10/21 01:30:47;;;;;;;3.08;1.70;;;;;;;10.80;100.00;94982.22;5000137;28;20401;-87
2023/10/21 01:33:14;;;;;;;2.47;1.70;;;;;;;10.76;100.00;94986.56;5000942;28;20410;-84
2023/10/21 01:35:40;;;;;;;1.70;1.60;;;;;;;10.84;100.00;94988.44;4998720;28;20402;-85
2023/10/21 01:38:06;;;;;;;2.00;1.50;;;;;;;10.74;100.00;94999.34;4999221;28;20468;-84
2023/10/21 01:40:34;;;;;;;1.73;1.50;;;;;;;10.89;100.00;95005.28;4999820;28;20428;-84
2023/10/21 01:43:00;;;;;;;1.90;1.40;;;;;;;10.95;100.00;95002.16;4999451;28;20410;-86
2023/10/21 01:45:26;;;;;;;2.00;1.40;;;;;;;10.97;100.00;95012.44;5017818;28;20409;-84
2023/10/21 01:47:52;;;;;;;1.50;1.40;;;;;;;10.96;100.00;95006.38;5018075;28;20401;-86
2023/10/21 01:50:19;;;;;;;1.58;1.38;;;;;;;10.95;100.00;95015.41;5017313;28;20527;-87
2023/10/21 01:52:46;;;;;;;1.33;1.20;;;;;;;10.91;100.00;95006.50;5018538;28;20801;-85
2023/10/21 01:55:12;;;;;;;1.30;1.20;;;;;;;10.91;100.00;95018.94;5017856;28;20401;-86
2023/10/21 01:57:40;;;;;;;1.20;1.10;;;;;;;10.88;100.00;95038.91;5018450;28;20707;-84
2023/10/21 02:00:10;;;;;;;1.15;1.05;;;;;;;10.85;100.00;95031.56;5018535;28;20397;-84
2023/10/21 02:02:36;;;;;;;2.08;1.10;;;;;;;10.79;100.00;95043.41;5017120;28;20555;-85
2023/10/21 02:05:04;;;;;;;1.30;1.20;;;;;;;10.80;100.00;95047.59;4999384;28;20400;-86
2023/10/21 02:07:31;;;;;;;1.90;0.90;;;;;;;10.76;100.00;95050.06;5016592;28;20431;-85
2023/10/21 02:09:57;;;;;;;1.63;1.00;;;;;;;10.74;100.00;95054.91;5017422;28;20399;-85
2023/10/21 02:12:23;;;;;;;3.15;1.02;;;;;;;10.70;100.00;95046.03;5000191;28;20408;-85
2023/10/21 02:14:51;;;;;;;1.02;0.98;;;;;;;10.74;100.00;95054.91;5005827;28;20414;-84
2023/10/21 02:17:17;;;;;;;1.02;1.02;;;;;;;10.72;100.00;95067.66;5005933;28;20451;-84
2023/10/21 02:19:43;;;;;;;1.73;1.10;;;;;;;10.68;100.00;95076.50;5016970;28;20472;-84
2023/10/21 02:22:09;;;;;;;2.23;1.07;;;;;;;10.72;100.00;95085.41;5002836;28;20418;-86
2023/10/21 02:24:36;;;;;;;0.90;0.90;;;;;;;10.73;100.00;95097.56;4983336;28;20449;-85
2023/10/21 02:27:02;;;;;;;0.90;0.90;;;;;;;10.70;100.00;95098.16;5013230;28;20798;-87
2023/10/21 02:29:29;;;;;;;1.58;1.00;;;;;;;10.72;100.00;95103.94;5000123;28;20408;-87
2023/10/21 02:31:56;;;;;;;1.10;0.90;;;;;;;10.65;100.00;95107.03;4985133;28;20519;-88
2023/10/21 02:34:23;;;;;;;1.70;1.10;;;;;;;10.57;100.00;95112.28;5005399;28;20406;-87
2023/10/21 02:36:49;;;;;;;0.98;0.98;;;;;;;10.54;100.00;95123.47;5005098;28;20452;-88
2023/10/21 02:39:17;;;;;;;1.10;1.10;;;;;;;10.53;100.00;95119.25;5008950;28;20405;-87
2023/10/21 02:41:43;;;;;;;1.10;1.00;;;;;;;10.56;100.00;95129.25;5008257;28;20402;-88
2023/10/21 02:44:09;;;;;;;1.65;1.00;;;;;;;10.55;100.00;95139.03;5007606;28;20410;-87
2023/10/21 02:46:36;;;;;;;1.10;1.00;;;;;;;10.55;100.00;95141.69;5006842;28;20453;-88
2023/10/21 02:49:04;;;;;;;1.20;1.10;;;;;;;10.52;100.00;95144.16;5005711;28;20588;-87
2023/10/21 02:51:30;;;;;;;1.38;1.10;;;;;;;10.54;100.00;95144.63;5024509;28;20460;-88
2023/10/21 02:53:56;;;;;;;1.20;1.02;;;;;;;10.57;100.00;95138.72;5024429;28;20444;-86
2023/10/21 02:56:23;;;;;;;1.75;1.10;;;;;;;10.57;100.00;95150.09;5023988;28;20431;-87
2023/10/21 02:58:49;;;;;;;1.33;1.00;;;;;;;10.60;100.00;95152.13;5026421;28;20868;-87
2023/10/21 03:01:18;;;;;;;1.73;1.00;;;;;;;10.62;100.00;95167.69;5022423;28;20393;-86
2023/10/21 03:03:46;;;;;;;1.35;1.02;;;;;;;10.56;100.00;95175.00;5025338;28;20401;-86
2023/10/21 03:06:15;;;;;;;1.17;1.08;;;;;;;10.63;100.00;95183.25;5185945;23;20391;-87
2023/10/21 03:08:41;;;;;;;2.00;1.15;;;;;;;10.66;100.00;95168.66;5027426;28;20401;-87
2023/10/21 03:11:08;;;;;;;0.93;0.93;;;;;;;10.62;100.00;95178.28;5027552;28;20480;-87
2023/10/21 03:13:36;;;;;;;1.20;1.10;;;;;;;10.58;100.00;95183.41;5032719;28;20451;-87
2023/10/21 03:16:05;;;;;;;1.48;1.00;;;;;;;10.49;100.00;95187.88;5033579;28;20409;-86
2023/10/21 03:18:32;;;;;;;1.80;1.20;;;;;;;10.56;100.00;95198.00;5032959;28;20392;-87
2023/10/21 03:20:58;;;;;;;1.30;1.10;;;;;;;10.58;100.00;95179.97;5028599;28;20393;-86
2023/10/21 03:23:25;;;;;;;1.30;1.05;;;;;;;10.62;100.00;95194.94;5019314;28;20404;-86
2023/10/21 03:25:55;;;;;;;2.72;1.10;;;;;;;10.54;100.00;95194.88;5024633;28;20415;-85
2023/10/21 03:28:22;;;;;;;2.13;1.13;;;;;;;10.60;100.00;95191.81;5031383;28;20434;-86
2023/10/21 03:30:48;;;;;;;1.30;1.20;;;;;;;10.64;100.00;95200.72;5026427;28;20424;-86
2023/10/21 03:33:14;;;;;;;1.50;1.25;;;;;;;10.64;100.00;95207.84;5013448;28;20878;-86
2023/10/21 03:35:40;;;;;;;1.30;1.20;;;;;;;10.60;100.00;95204.28;5005045;28;20418;-87
2023/10/21 03:38:06;;;;;;;0.80;0.80;;;;;;;10.55;100.00;95209.69;5005557;28;20422;-86
2023/10/21 03:40:34;;;;;;;0.90;0.90;;;;;;;10.53;100.00;95203.91;5000227;28;20769;-86
2023/10/21 03:43:00;;;;;;;2.60;1.40;;;;;;;10.50;100.00;95215.09;4999390;28;20445;-87
2023/10/21 03:45:26;;;;;;;2.00;1.10;;;;;;;10.58;100.00;95217.00;5002506;28;20395;-88
2023/10/21 03:47:52;;;;;;;1.70;1.03;;;;;;;10.60;100.00;95212.97;5002067;28;20402;-86
2023/10/21 03:50:19;;;;;;;1.17;1.08;;;;;;;10.58;100.00;95223.09;4999959;28;20403;-87
2023/10/21 03:52:45;;;;;;;0.98;0.93;;;;;;;10.52;100.00;95220.88;4998932;28;20411;-87
2023/10/21 03:55:11;;;;;;;1.30;0.90;;;;;;;10.46;100.00;95236.84;5000030;28;20403;-87
2023/10/21 03:57:38;;;;;;;1.98;1.20;;;;;;;10.48;100.00;95228.63;5003400;28;20425;-86
2023/10/21 04:00:07;;;;;;;2.58;1.13;;;;;;;10.53;100.00;95230.34;5001161;28;20403;-87
2023/10/21 04:02:33;;;;;;;1.45;1.08;;;;;;;10.51;100.00;95238.63;5000249;28;20442;-86
2023/10/21 04:05:00;;;;;;;1.20;1.10;;;;;;;10.50;100.00;95241.56;4997205;28;20402;-86
2023/10/21 04:07:27;;;;;;;1.05;1.00;;;;;;;10.47;100.00;95245.56;5004864;28;20422;-86
2023/10/21 04:09:53;;;;;;;2.15;1.20;;;;;;;10.51;100.00;95251.06;5005642;28;20402;-86
2023/10/21 04:12:19;;;;;;;1.63;1.20;;;;;;;10.57;100.00;95250.63;5003496;28;20402;-86
2023/10/21 04:14:47;;;;;;;1.77;1.10;;;;;;;10.60;100.00;95252.66;4996103;28;20402;-85
2023/10/21 04:17:13;;;;;;;0.90;0.90;;;;;;;10.60;100.00;95251.91;5001458;28;20422;-86
2023/10/21 04:19:39;;;;;;;1.10;1.00;;;;;;;10.57;100.00;95249.84;5005658;28;20433;-85
2023/10/21 04:22:06;;;;;;;2.27;1.00;;;;;;;10.53;100.00;95249.66;4983847;28;20402;-85
2023/10/21 04:24:32;;;;;;;2.05;1.20;;;;;;;10.57;100.00;95249.84;5008016;28;20771;-83
2023/10/21 04:26:58;;;;;;;1.50;1.10;;;;;;;10.57;100.00;95252.50;5005933;28;20402;-85
2023/10/21 04:29:24;;;;;;;1.60;1.10;;;;;;;10.59;100.00;95258.25;5005760;28;20436;-85
2023/10/21 04:31:52;;;;;;;1.20;1.10;;;;;;;10.64;100.00;95258.91;5011291;28;20416;-85
2023/10/21 04:34:19;;;;;;;1.50;1.20;;;;;;;10.66;100.00;95266.56;5010576;28;20427;-83
2023/10/21 04:36:45;;;;;;;2.80;1.40;;;;;;;10.74;100.00;95276.41;5009773;28;20425;-84
2023/10/21 04:39:14;;;;;;;2.53;1.42;;;;;;;10.75;100.00;95278.72;5008894;28;22260;-84
2023/10/21 04:41:40;;;;;;;1.50;1.10;;;;;;;10.82;100.00;95280.97;5010742;28;20438;-83
2023/10/21 04:44:07;;;;;;;1.55;1.10;;;;;;;10.88;100.00;95295.63;5010065;28;20407;-84
2023/10/21 04:46:34;;;;;;;1.40;1.10;;;;;;;10.88;100.00;95292.97;5004662;28;20406;-85
2023/10/21 04:49:01;;;;;;;5.43;1.23;;;;;;;10.84;100.00;95292.78;5011139;28;20394;-83
2023/10/21 04:51:27;;;;;;;1.20;1.10;;;;;;;10.84;100.00;95284.84;5005952;28;20418;-82
2023/10/21 04:53:53;;;;;;;2.00;1.00;;;;;;;10.89;100.00;95286.59;5010422;28;20438;-84
2023/10/21 04:56:20;;;;;;;1.00;1.00;;;;;;;10.88;100.00;95290.34;5008923;28;20463;-82
2023/10/21 04:58:46;;;;;;;1.10;1.00;;;;;;;10.84;100.00;95299.94;4995212;28;20406;-85
2023/10/21 05:01:16;;;;;;;1.52;1.05;;;;;;;10.81;100.00;95301.34;5013260;28;20394;-84
2023/10/21 05:03:42;;;;;;;2.50;1.15;;;;;;;10.79;100.00;95308.81;5007248;28;20410;-82
2023/10/21 05:06:11;;;;;;;1.30;1.08;;;;;;;10.85;100.00;95304.16;5015171;28;20462;-83
2023/10/21 05:08:37;;;;;;;2.58;1.10;;;;;;;10.84;100.00;95313.97;5013778;28;20405;-82
2023/10/21 05:11:04;;;;;;;1.77;1.10;;;;;;;10.84;100.00;95316.63;5018933;28;20420;-82
2023/10/21 05:13:30;;;;;;;1.30;1.20;;;;;;;10.82;100.00;95321.44;5016577;28;20472;-81
2023/10/21 05:15:56;;;;;;;0.93;0.93;;;;;;;10.81;100.00;95330.47;5016246;28;20397;-83
2023/10/21 05:18:22;;;;;;;1.30;1.20;;;;;;;10.76;100.00;95338.50;5011391;28;20418;-82
2023/10/21 05:20:48;;;;;;;1.00;1.00;;;;;;;10.75;100.00;95347.53;5012871;28;20409;-80
2023/10/21 05:23:16;;;;;;;0.90;0.90;;;;;;;10.73;100.00;95352.38;5017329;28;20812;-82
2023/10/21 05:25:42;;;;;;;1.40;1.10;;;;;;;10.70;100.00;95360.09;5023536;28;20898;-83
2023/10/21 05:28:08;;;;;;;1.05;1.00;;;;;;;10.71;100.00;95357.16;5023242;28;20397;-83
2023/10/21 05:30:34;;;;;;;2.15;1.00;;;;;;;10.70;100.00;95366.19;5023952;28;20405;-82
2023/10/21 05:33:01;;;;;;;1.00;1.00;;;;;;;10.68;100.00;95375.50;5012294;28;20478;-82
2023/10/21 05:35:27;;;;;;;0.90;0.90;;;;;;;10.67;100.00;95384.53;5004807;28;20407;-82
2023/10/21 05:37:53;;;;;;;0.90;0.90;;;;;;;10.65;100.00;95381.41;5004546;28;20418;-82
2023/10/21 05:40:20;;;;;;;1.05;1.00;;;;;;;10.62;100.00;95384.63;5004139;28;20655;-83
2023/10/21 05:42:46;;;;;;;1.00;1.00;;;;;;;10.59;100.00;95401.91;5004495;28;20402;-83
2023/10/21 05:45:13;;;;;;;1.40;1.20;;;;;;;10.55;100.00;95408.88;5004090;28;20398;-83
2023/10/21 05:47:39;;;;;;;0.90;0.90;;;;;;;10.52;100.00;95416.63;5002201;28;20403;-84
2023/10/21 05:50:06;;;;;;;1.30;0.90;;;;;;;10.47;100.00;95410.34;4999751;28;20417;-83
2023/10/21 05:52:32;;;;;;;0.88;0.88;;;;;;;10.43;100.00;95424.47;5006872;28;20402;-84
2023/10/21 05:54:58;;;;;;;1.48;1.00;;;;;;;10.39;100.00;95432.22;5010782;28;20412;-82
2023/10/21 05:57:26;;;;;;;1.35;1.00;;;;;;;10.35;100.00;95447.13;5024552;28;20416;-84
2023/10/21 05:59:52;;;;;;;1.05;1.00;;;;;;;10.30;100.00;95452.50;5007986;28;20406;-84
2023/10/21 06:02:18;;;;;;;1.48;1.10;;;;;;;10.24;100.00;95448.41;5004732;28;20395;-84
2023/10/21 06:04:45;;;;;;;2.43;1.10;;;;;;;10.20;100.00;95465.94;5013279;28;20485;-84
2023/10/21 06:07:11;;;;;;;1.35;1.20;;;;;;;10.17;100.00;95463.06;5011996;28;20942;-83
2023/10/21 06:09:37;;;;;;;1.13;1.02;;;;;;;10.12;100.00;95465.81;5013955;28;20451;-81
2023/10/21 06:12:03;;;;;;;1.55;1.10;;;;;;;10.08;100.00;95479.63;5019458;28;20460;-81
2023/10/21 06:14:31;;;;;;;2.63;1.10;;;;;;;10.05;100.00;95474.16;5019065;28;20401;-82
2023/10/21 06:16:58;;;;;;;2.20;1.30;;;;;;;10.04;100.00;95486.56;4999716;28;20487;-82
2023/10/21 06:19:24;;;;;;;1.50;1.40;;;;;;;10.03;100.00;95492.16;4999580;28;20806;-82
2023/10/21 06:21:50;;;;;;;1.88;1.45;;;;;;;10.04;100.00;95502.44;4999329;28;20403;-82
2023/10/21 06:24:17;;;;;;;2.67;1.40;;;;;;;10.05;100.00;95498.72;4998270;28;20449;-82
2023/10/21 06:26:43;;;;;;;1.58;1.48;;;;;;;10.07;100.00;95493.16;4998402;28;20403;-80
2023/10/21 06:29:10;;;;;;;2.33;1.30;;;;;;;10.08;100.00;95505.25;4999372;28;20905;-82
2023/10/21 06:31:37;;;;;;;2.25;1.45;;;;;;;10.07;100.00;95501.84;4998935;28;20755;-82
2023/10/21 06:34:03;;;;;;;1.30;1.20;;;;;;;10.07;100.00;95509.00;4998628;28;20407;-81
2023/10/21 06:36:29;;;;;;;1.20;1.10;;;;;;;10.07;100.00;95519.59;4998471;28;20405;-82
2023/10/21 06:38:57;;;;;;;1.40;1.30;;;;;;;10.07;100.00;95519.59;4997660;28;20398;-81
2023/10/21 06:41:23;;;;;;;2.22;1.90;;;;;;;10.05;100.00;95527.81;4996863;28;20715;-81
2023/10/21 06:43:51;;;;;;;1.80;1.60;;;;;;;10.05;100.00;95530.44;5005056;28;20401;-81
2023/10/21 06:46:17;;;;;;;2.20;1.90;;;;;;;10.05;100.00;95532.28;5017489;28;20881;-81
2023/10/21 06:48:45;;;;;;;2.25;1.77;;;;;;;10.07;100.00;95540.72;5017077;28;20408;-81
2023/10/21 06:51:13;;;;;;;2.20;1.77;;;;;;;10.08;100.00;95545.69;5017892;28;20857;-81
2023/10/21 06:53:39;;;;;;;1.60;1.50;;;;;;;10.09;100.00;95549.13;5017488;28;20471;-83
2023/10/21 06:56:10;;;;;;;1.60;1.50;;;;;;;10.10;100.00;95550.69;5018035;28;20395;-82
2023/10/21 06:58:36;;;;;;;2.35;1.60;;;;;;;10.11;100.00;95570.78;5016863;28;20484;-83
2023/10/21 07:01:03;;;;;;;1.60;1.50;;;;;;;10.13;100.00;95568.63;5020341;28;20413;-82
2023/10/21 07:03:29;;;;;;;1.70;1.60;;;;;;;10.16;100.00;95577.81;5015717;28;20389;-81
2023/10/21 07:05:57;;;;;;;2.08;1.48;;;;;;;10.19;100.00;95579.94;5015900;28;20397;-82
2023/10/21 07:08:24;;;;;;;1.50;1.40;;;;;;;10.23;100.00;95579.03;5015907;28;20459;-81
2023/10/21 07:10:53;;;;;;;3.67;1.63;;;;;;;10.28;100.00;95596.69;5016274;28;20809;-84
2023/10/21 07:13:19;;;;;;;2.80;1.40;;;;;;;10.55;100.00;95601.19;5016331;28;20735;-83
2023/10/21 07:15:47;;;;;;;1.50;1.20;;;;;;;10.75;100.00;95603.47;5016682;28;20397;-82
2023/10/21 07:18:14;;;;;;;1.50;1.05;;;;;;;10.95;100.00;95595.09;5019432;28;20420;-82
2023/10/21 07:20:40;;;;;;;2.30;1.10;;;;;;;11.09;100.00;95605.66;5018070;28;20420;-81
2023/10/21 07:23:08;;;;;;;1.90;1.00;;;;;;;11.23;100.00;95606.41;5015497;28;20389;-82
2023/10/21 07:25:36;;;;;;;1.60;0.80;;;;;;;11.41;100.00;95602.06;5016694;28;20411;-82
2023/10/21 07:28:03;;;;;;;1.40;0.90;;;;;;;11.57;100.00;95605.94;5015461;28;20763;-82
2023/10/21 07:30:29;;;;;;;1.10;0.82;;;;;;;11.76;100.00;95608.44;4998017;28;20410;-81
2023/10/21 07:32:56;;;;;;;0.77;0.77;;;;;;;11.88;100.00;95611.31;5015214;28;20431;-80
2023/10/21 07:35:22;;;;;;;1.10;0.70;;;;;;;12.03;100.00;95616.25;5016299;28;20560;-82
2023/10/21 07:37:49;;;;;;;1.05;0.70;;;;;;;12.20;100.00;95634.91;5015868;28;20462;-81
2023/10/21 07:40:17;;;;;;;1.00;0.70;;;;;;;12.26;100.00;95643.53;5015837;28;20404;-83
2023/10/21 07:42:43;;;;;;;2.58;0.80;;;;;;;12.45;100.00;95646.75;5015642;28;20397;-82
2023/10/21 07:45:11;;;;;;;0.77;0.70;;;;;;;12.72;100.00;95649.22;4997258;28;20493;-81
2023/10/21 07:47:37;;;;;;;1.43;0.80;;;;;;;12.61;100.00;95652.47;4996754;28;20414;-82
2023/10/21 07:50:07;;;;;;;0.95;0.77;;;;;;;12.91;100.00;95654.28;4996188;28;20474;-81
2023/10/21 07:52:35;;;;;;;0.60;0.60;;;;;;;13.08;100.00;95659.63;4996831;28;20394;-83
2023/10/21 07:55:02;;;;;;;1.77;0.70;;;;;;;13.05;100.00;95664.81;4997490;28;20401;-82
2023/10/21 07:57:31;;;;;;;3.20;0.85;;;;;;;12.77;100.00;95670.34;5010587;28;20420;-84
2023/10/21 07:59:57;;;;;;;1.23;0.80;;;;;;;12.90;100.00;95673.97;5022549;28;20416;-82
2023/10/21 08:02:23;;;;;;;0.65;0.60;;;;;;;13.07;100.00;95683.88;5024597;28;20451;-85
2023/10/21 08:04:49;;;;;;;0.70;0.60;;;;;;;13.21;100.00;95687.22;5022837;28;20403;-82
2023/10/21 08:07:15;;;;;;;1.50;0.68;;;;;;;13.28;100.00;95686.78;5021801;28;20416;-81
2023/10/21 08:09:42;;;;;;;0.50;0.50;;;;;;;13.57;100.00;95695.72;5022239;28;20396;-82
2023/10/21 08:12:08;;;;;;;1.95;0.68;;;;;;;13.83;100.00;95706.38;5022019;28;20395;-81
2023/10/21 08:14:36;;;;;;;0.57;0.50;;;;;;;13.95;100.00;95692.47;5022329;28;20503;-82
2023/10/21 08:17:06;;;;;;;0.90;0.60;;;;;;;13.94;100.00;95698.88;5023091;28;20420;-83
2023/10/21 08:19:32;;;;;;;2.63;0.60;;;;;;;13.81;100.00;95705.94;5027459;28;20423;-83
2023/10/21 08:21:58;;;;;;;0.50;0.50;;;;;;;14.26;100.00;95702.94;5022577;28;20412;-82
2023/10/21 08:24:24;;;;;;;4.22;0.70;;;;;;;14.26;100.00;95717.03;5022241;28;20403;-83
2023/10/21 08:26:51;;;;;;;1.52;0.60;;;;;;;14.46;100.00;95717.50;5022501;28;20412;-82
2023/10/21 08:29:17;;;;;;;1.45;0.70;;;;;;;14.63;100.00;95714.81;5024783;28;21007;-83
2023/10/21 08:31:44;;;;;;;1.02;0.60;;;;;;;14.84;100.00;95718.34;5021764;28;20401;-82
2023/10/21 08:34:12;;;;;;;0.85;0.40;;;;;;;14.87;100.00;95712.41;5002774;28;20459;-82
2023/10/21 08:36:39;;;;;;;0.50;0.50;;;;;;;15.17;100.00;95725.75;5002137;28;20875;-81
2023/10/21 08:39:07;;;;;;;0.82;0.50;;;;;;;15.07;100.00;95733.00;5002143;28;20402;-83
2023/10/21 08:41:36;;;;;;;0.97;0.60;;;;;;;14.96;100.00;95731.78;5002426;28;20410;-83
2023/10/21 08:44:05;;;;;;;1.77;0.80;;;;;;;14.88;100.00;95737.16;5002469;28;20430;-84
2023/10/21 08:46:35;;;;;;;0.50;0.50;;;;;;;14.77;100.00;95736.69;5002071;28;20430;-82
2023/10/21 08:49:04;;;;;;;0.80;0.50;;;;;;;14.61;100.00;95747.06;5001954;28;20847;-82
2023/10/21 08:51:32;;;;;;;1.45;0.70;;;;;;;14.36;100.00;95750.50;5003111;28;20454;-82
2023/10/21 08:54:00;;;;;;;1.00;0.63;;;;;;;14.15;100.00;95758.34;5002187;28;20482;-83
2023/10/21 08:56:30;;;;;;;2.37;0.60;;;;;;;13.86;100.00;95755.53;5002614;28;20426;-83
2023/10/21 08:58:56;;;;;;;0.70;0.70;;;;;;;13.81;100.00;95761.00;5005822;28;20410;-84
2023/10/21 09:01:23;;;;;;;0.60;0.60;;;;;;;13.73;100.00;95764.41;5003197;28;20395;-82
2023/10/21 09:03:49;;;;;;;0.80;0.63;;;;;;;13.75;100.00;95770.22;5002337;28;20426;-82
2023/10/21 09:06:17;;;;;;;0.98;0.70;;;;;;;13.52;100.00;95783.63;5002834;28;20402;-83
2023/10/21 09:08:44;;;;;;;2.90;0.70;;;;;;;13.49;100.00;95789.53;5000008;28;20682;-83
2023/10/21 09:11:16;;;;;;;1.95;0.80;;;;;;;13.62;100.00;95779.88;5003849;28;20390;-82
2023/10/21 09:13:42;;;;;;;0.82;0.73;;;;;;;13.91;100.00;95780.09;4998617;28;20406;-81
2023/10/21 09:16:19;;;;;;;1.60;0.70;;;;;;;14.22;100.00;95792.47;4998282;28;20399;-81
2023/10/21 09:18:56;;;;;;;0.90;0.60;;;;;;;14.47;100.00;95807.72;4998761;28;20453;-80
2023/10/21 09:21:32;;;;;;;0.50;0.50;;;;;;;14.95;100.00;95804.84;4998482;28;20871;-81
2023/10/21 09:23:59;;;;;;;0.70;0.60;;;;;;;15.40;100.00;95807.06;4999018;28;20447;-83
2023/10/21 09:26:32;;;;;;;0.50;0.50;;;;;;;15.78;100.00;95815.06;4999032;28;20461;-82
2023/10/21 09:29:05;;;;;;;3.47;0.80;;;;;;;16.19;100.00;95809.78;5002366;28;20411;-81
2023/10/21 09:31:45;;;;;;;0.45;0.45;;;;;;;16.90;100.00;95809.69;4998545;28;20430;-81
2023/10/21 09:34:24;;;;;;;0.40;0.40;;;;;;;17.62;100.00;95820.88;4997544;28;20859;-81
2023/10/21 09:36:52;;;;;;;1.13;0.50;;;;;;;17.72;100.00;95823.91;4999375;28;20430;-82
2023/10/21 09:39:19;;;;;;;5.65;0.70;;;;;;;17.21;100.00;95821.81;4999953;28;20457;-82
2023/10/21 09:41:50;;;;;;;3.67;0.93;;;;;;;16.55;100.00;95795.03;5000232;28;20484;-82
2023/10/21 09:44:17;;;;;;;2.95;0.70;;;;;;;16.60;100.00;95790.31;5011477;28;20439;-83
2023/10/21 09:46:44;;;;;;;1.33;0.60;;;;;;;16.88;100.00;95787.06;5020137;28;20645;-83
2023/10/21 09:49:13;;;;;;;1.20;0.60;;;;;;;17.26;100.00;95795.63;5021775;28;20454;-82
2023/10/21 09:51:51;;;;;;;1.25;0.50;;;;;;;17.31;100.00;95794.63;5022081;28;20404;-84
2023/10/21 09:54:26;;;;;;;1.52;0.70;;;;;;;17.50;100.00;95800.22;5022470;28;20404;-83
2023/10/21 09:56:54;;;;;;;1.27;0.60;;;;;;;17.83;100.00;95815.41;5022391;28;20429;-82
2023/10/21 09:59:23;;;;;;;0.95;0.52;;;;;;;17.78;100.00;95803.81;5021543;28;20412;-81
2023/10/21 10:01:53;;;;;;;2.35;0.77;;;;;;;17.78;100.00;95798.47;5021009;28;20476;-83
2023/10/21 10:04:22;;;;;;;1.70;0.80;;;;;;;18.26;100.00;95804.09;5019272;28;20400;-82
2023/10/21 10:06:57;;;;;;;1.02;0.50;;;;;;;18.51;100.00;95800.22;5021328;28;20409;-82
2023/10/21 10:09:26;;;;;;;0.32;0.32;;;;;;;19.11;100.00;95801.88;5021970;28;20504;-83
2023/10/21 10:11:58;;;;;;;1.75;0.40;;;;;;;19.71;100.00;95806.09;5023407;28;20757;-82
2023/10/21 10:14:25;;;;;;;1.52;0.50;;;;;;;20.10;100.00;95782.03;5021726;28;20927;-81
2023/10/21 10:16:51;;;;;;;3.42;1.10;;;;;;;20.10;100.00;95776.66;5018856;28;20414;-84
2023/10/21 10:19:37;;;;;;;0.70;0.40;;;;;;;20.31;100.00;95782.50;5003049;28;20735;-81
2023/10/21 10:22:18;;;;;;;2.33;0.90;;;;;;;19.94;100.00;95795.50;5000734;28;20403;-80
2023/10/21 10:24:51;;;;;;;1.02;0.50;;;;;;;19.79;100.00;95798.22;5001602;28;20831;-84
2023/10/21 10:27:18;;;;;;;1.42;0.60;;;;;;;19.60;100.00;95798.94;5001794;28;20429;-81
2023/10/21 10:29:48;;;;;;;1.45;0.70;;;;;;;19.43;100.00;95801.91;5000021;28;20442;-81
2023/10/21 10:32:16;;;;;;;1.00;0.40;;;;;;;19.11;100.00;95807.25;5002530;28;20667;-82
2023/10/21 10:34:52;;;;;;;1.17;0.50;;;;;;;18.82;100.00;95803.03;4989873;28;20427;-82
2023/10/21 10:37:29;;;;;;;0.93;0.50;;;;;;;18.58;100.00;95803.13;5011886;28;20516;-84
2023/10/21 10:39:57;;;;;;;3.78;0.70;;;;;;;18.14;100.00;95811.03;5008837;28;20426;-85
2023/10/21 10:42:27;;;;;;;2.70;0.50;;;;;;;17.78;100.00;95813.75;5010791;28;20434;-82
2023/10/21 10:44:54;;;;;;;1.98;0.60;;;;;;;17.48;100.00;95813.16;5009048;28;20411;-81
2023/10/21 10:47:21;;;;;;;0.40;0.40;;;;;;;17.21;100.00;95824.47;5010342;28;20409;-79
2023/10/21 10:49:54;;;;;;;1.30;0.60;;;;;;;16.88;100.00;95827.16;5006340;28;20488;-82
2023/10/21 10:52:26;;;;;;;0.85;0.50;;;;;;;16.64;100.00;95822.50;5014864;28;20399;-82
2023/10/21 10:54:53;;;;;;;1.63;0.60;;;;;;;16.41;100.00;95816.69;5022583;28;20484;-83
2023/10/21 10:57:21;;;;;;;1.52;0.60;;;;;;;16.34;100.00;95812.97;5022154;28;20413;-82
2023/10/21 10:59:49;;;;;;;1.20;0.50;;;;;;;16.24;100.00;95814.13;5021067;28;20483;-82
2023/10/21 11:02:16;;;;;;;1.80;0.88;;;;;;;16.15;100.00;95816.09;5020154;28;20948;-82
2023/10/21 11:04:44;;;;;;;0.70;0.60;;;;;;;16.18;100.00;95812.75;5020215;28;20448;-83
2023/10/21 11:07:11;;;;;;;1.40;0.60;;;;;;;16.12;100.00;95811.41;5020901;28;20472;-82
2023/10/21 11:09:38;;;;;;;2.40;0.60;;;;;;;16.20;100.00;95815.91;5020439;28;20460;-83
2023/10/21 11:12:05;;;;;;;2.13;0.75;;;;;;;16.17;100.00;95817.31;5004583;28;20436;-83
2023/10/21 11:14:34;;;;;;;1.48;0.70;;;;;;;16.23;100.00;95815.25;5022012;28;20842;-81
2023/10/21 11:17:01;;;;;;;2.03;0.80;;;;;;;16.32;100.00;95823.19;5019003;28;20432;-82
2023/10/21 11:19:27;;;;;;;3.70;1.20;;;;;;;16.01;100.00;95813.69;5000617;28;20412;-82
2023/10/21 11:21:53;;;;;;;2.83;0.70;;;;;;;16.15;100.00;95819.56;5019489;28;20428;-80
2023/10/21 11:24:19;;;;;;;2.00;0.70;;;;;;;16.02;100.00;95812.56;5020287;28;20404;-80